< < Back
Terminal Aerodrome Forecast


Current Version              Previous Versions:   1  2  3  4  5  6  7  8  9  

Terminal Aerodrome Forecast

779
FTUS42 KCAE 250242 AAA
TAFAGS
TAF AMD
KAGS 250242Z 2503/2524 VRB03KT P6SM SCT080 BKN200
      TEMPO 2507/2511 4SM BR
     FM251400 33006KT P6SM SCT060=



Latest METAR

183
SAUS70 KWBC 250300 RRK
MTRAGS
METAR KAGS 250253Z 00000KT 9SM FEW080 25/24 A3000 RMK AO2 SLP158
T02500239 53014


USA.gov is the U.S. government's official web portal to all federal, state and local government web resources and services.